Latest Weather Observations for Urandangi

IDQ60801

Issued at 5:35 pm EST Saturday 30 August 2014 (issued every 30 minutes, with the page automatically refreshed every 10 minutes)

About weather observations | Map of weather stations | Latest weather observations for QLD | Other Formats
Station Details ID: 037058 Name: URANDANGI AERODROME Lat: -21.60 Lon: 138.37 Height: 178.6 m
Data from the previous 72 hours. | See also: Recent months at Urandangi
Date/Time
EST
Temp
°C
App
Temp
°C
Dew
Point
Rel
Hum
%
Delta-T
°C
Wind Press
QNH
hPa
Press
MSL
hPa
Rain
since 9 am
mm
Dir
 
Spd
km/h
Gust
km/h
Spd
kts
Gust
kts
30/05:30pm 27.9 22.9 -4.1 12 14.1 SE 13 20 7 11 1015.6 1015.3 0.0
30/05:00pm 28.2 21.9 -3.9 12 14.2 ESE 20 26 11 14 1015.6 1015.3 0.0
30/04:30pm 28.4 23.1 -3.7 12 14.3 S 15 22 8 12 1015.6 1015.3 0.0
30/04:00pm 28.3 23.7 -3.8 12 14.3 SSE 11 20 6 11 1015.6 1015.3 0.0
30/03:30pm 28.5 23.6 -3.6 12 14.3 SSE 13 24 7 13 1015.9 1015.6 0.0
30/03:00pm 28.7 22.6 -3.5 12 14.4 S 19 30 10 16 1016.2 1015.9 0.0
30/02:30pm 28.3 24.1 -3.8 12 14.3 S 9 22 5 12 1016.7 1016.4 0.0
30/02:00pm 28.3 23.7 -3.8 12 14.2 SSE 11 24 6 13 1017.2 1016.9 0.0
30/01:30pm 27.9 23.4 -3.0 13 13.9 SSE 11 24 6 13 1017.9 1017.5 0.0
30/01:00pm 27.6 23.6 -2.3 14 13.5 ESE 9 20 5 11 1018.7 1018.3 0.0
30/12:30pm 27.2 22.3 -3.6 13 13.6 E 13 24 7 13 1019.2 1018.8 0.0
30/12:00pm 27.2 21.6 -2.6 14 13.4 E 17 24 9 13 1019.8 1019.4 0.0
30/11:30am 25.6 20.5 -2.1 16 12.4 E 15 24 8 13 1020.3 1019.9 0.0
30/11:00am 24.8 19.6 -2.7 16 12.1 E 15 20 8 11 1020.8 1020.5 0.0
30/10:30am 21.8 16.5 -3.5 18 10.7 ESE 15 20 8 11 1021.1 1020.8 0.0
30/10:00am 20.0 14.7 -3.6 20 9.7 SE 15 19 8 10 1021.2 1020.9 0.0
30/09:30am 18.5 13.1 -4.2 21 9.2 SE 15 20 8 11 1021.3 1021.0 0.0
30/09:00am 16.8 11.4 -4.4 23 8.3 SE 15 19 8 10 1021.4 1021.1 0.0
30/08:30am 14.9 10.6 -4.9 25 7.5 SSE 9 19 5 10 1021.3 1021.0 0.0
30/08:00am 10.2 6.6 -7.5 28 6.0 SSE 4 6 2 3 1021.0 1020.7 0.0
30/07:30am 7.3 3.2 -8.3 32 5.0 SSE 6 7 3 4 1020.7 1020.4 0.0
30/07:00am 6.2 2.2 -7.4 37 4.4 S 6 7 3 4 1020.3 1019.9 0.0
30/06:30am 5.8 1.5 -9.2 33 4.6 SSE 7 9 4 5 1020.0 1019.6 0.0
30/06:00am 6.5 2.4 -8.2 34 4.7 SSE 6 7 3 4 1019.9 1019.5 0.0
30/05:30am 6.2 2.1 -8.8 33 4.7 SSE 6 7 3 4 1019.6 1019.2 0.0
30/05:00am 6.1 1.9 -9.7 31 4.8 SSE 6 6 3 3 1019.5 1019.1 0.0
30/04:30am 6.2 2.4 -9.6 31 4.8 SSE 4 6 2 3 1019.4 1019.0 0.0
30/04:00am 7.4 3.7 -8.6 31 5.1 SSE 4 6 2 3 1019.3 1018.9 0.0
30/03:30am 7.6 3.5 -9.3 29 5.3 SSE 6 6 3 3 1019.3 1018.9 0.0
30/03:00am 7.7 3.4 -9.2 29 5.3 SSE 7 9 4 5 1019.5 1019.1 0.0
30/02:30am 8.4 4.3 -9.0 28 5.6 SE 6 7 3 4 1019.6 1019.2 0.0
30/02:00am 8.9 5.6 -8.6 28 5.7 SE 2 4 1 2 1019.6 1019.2 0.0
30/01:30am 9.3 5.2 -8.7 27 5.9 SE 6 7 3 4 1019.6 1019.2 0.0
30/01:00am 10.1 5.8 -8.5 26 6.2 SE 7 9 4 5 1019.7 1019.3 0.0
30/12:30am 10.3 5.7 -8.3 26 6.2 SSE 9 9 5 5 1019.8 1019.4 0.0
30/12:00am 11.5 7.9 -7.8 25 6.6 SSE 4 6 2 3 1019.9 1019.5 0.0
 
Date/Time
EST
Temp
°C
App
Temp
°C
Dew
Point
Rel
Hum
%
Delta-T
°C
Wind Press
QNH
hPa
Press
MSL
hPa
Rain
since 9 am
mm
Dir
 
Spd
km/h
Gust
km/h
Spd
kts
Gust
kts
29/11:30pm 12.1 8.1 -7.8 24 6.9 SE 6 7 3 4 1020.0 1019.6 0.0
29/11:00pm 12.7 8.5 -7.9 23 7.2 SE 7 9 4 5 1020.1 1019.7 0.0
29/10:30pm 13.7 9.5 -7.6 22 7.6 SE 7 7 4 4 1020.1 1019.7 0.0
29/10:00pm 15.1 10.3 -6.4 22 8.0 SSE 11 13 6 7 1020.0 1019.6 0.0
29/09:30pm 15.6 10.7 -7.2 20 8.4 SSE 11 11 6 6 1019.9 1019.5 0.0
29/09:00pm 16.6 11.7 -7.1 19 8.8 SSE 11 13 6 7 1019.7 1019.3 0.0
29/08:30pm 17.9 13.0 -7.5 17 9.5 SSE 11 13 6 7 1019.4 1019.0 0.0
29/08:00pm 19.1 14.2 -7.3 16 10.0 SSE 11 13 6 7 1019.2 1018.8 0.0
29/07:30pm 20.8 15.6 -6.7 15 10.8 SSE 13 15 7 8 1018.9 1018.5 0.0
29/07:00pm 22.7 17.1 -6.1 14 11.6 SSE 15 19 8 10 1018.5 1018.1 0.0
29/06:30pm 24.0 18.3 -7.1 12 12.5 SSE 15 19 8 10 1018.4 1018.0 0.0
29/06:00pm 25.5 18.9 -7.1 11 13.3 SSE 20 28 11 15 1018.4 1018.0 0.0
29/05:30pm 26.3 19.9 -6.5 11 13.6 SE 19 28 10 15 1018.2 1017.8 0.0
29/05:00pm 26.6 20.1 -7.5 10 13.9 SSE 19 30 10 16 1018.0 1017.6 0.0
29/04:30pm 26.7 19.8 -6.2 11 13.8 SE 22 33 12 18 1017.7 1017.4 0.0
29/04:00pm 27.4 19.3 -6.9 10 14.3 SE 28 35 15 19 1017.7 1017.4 0.0
29/03:30pm 27.2 19.9 -5.8 11 14.0 SE 24 32 13 17 1018.2 1017.8 0.0
29/03:00pm 27.1 20.7 -7.1 10 14.1 SE 19 30 10 16 1018.4 1018.0 0.0
29/02:30pm 27.2 19.1 -7.0 10 14.2 SE 28 35 15 19 1018.7 1018.3 0.0
29/02:00pm 26.5 20.0 -6.3 11 13.7 SE 20 32 11 17 1019.3 1018.9 0.0
29/01:30pm 26.6 20.2 -5.1 12 13.6 ESE 20 32 11 17 1019.8 1019.4 0.0
29/01:00pm 26.5 20.2 -4.1 13 13.3 SE 20 32 11 17 1020.4 1020.1 0.0
29/12:30pm 25.9 18.8 -4.6 13 13.1 ESE 24 33 13 18 1021.0 1020.7 0.0
29/12:00pm 25.4 20.1 -4.0 14 12.7 E 15 20 8 11 1021.5 1021.2 0.0
29/11:30am 24.8 17.9 -2.7 16 12.1 ESE 24 33 13 18 1022.0 1021.7 0.0
29/11:00am 24.3 17.8 -2.3 17 11.7 E 22 32 12 17 1022.2 1021.9 0.0
29/10:30am 23.3 15.7 -2.3 18 11.2 E 28 37 15 20 1022.5 1022.2 0.0
29/10:00am 21.4 14.7 -1.2 22 9.9 ESE 24 33 13 18 1022.6 1022.3 0.0
29/09:30am 18.6 13.2 -1.3 26 8.5 ESE 17 22 9 12 1022.9 1022.6 0.0
29/09:00am 16.9 12.3 -1.2 29 7.6 SE 13 19 7 10 1022.8 1022.5 0.0
29/08:30am 14.0 10.0 -2.0 33 6.5 SE 9 13 5 7 1022.8 1022.5 0.0
29/08:00am 11.2 7.7 -2.6 38 5.3 SSE 6 11 3 6 1022.6 1022.3 0.0
29/07:30am 7.1 3.4 -4.3 44 4.0 SSE 6 7 3 4 1022.1 1021.8 0.0
29/07:00am 7.0 3.7 -4.4 44 4.0 SE 4 6 2 3 1021.7 1021.4 0.0
29/06:30am 7.9 4.3 -3.3 45 4.1 ESE 6 6 3 3 1021.2 1020.9 0.0
29/06:00am 8.1 4.5 -3.4 44 4.2 SE 6 7 3 4 1020.9 1020.6 0.0
29/05:30am 8.4 4.9 -3.1 44 4.3 SE 6 7 3 4 1020.6 1020.3 0.0
29/05:00am 8.9 5.2 -3.3 42 4.5 SE 7 9 4 5 1020.4 1020.1 0.0
29/04:30am 9.6 5.5 -3.0 41 4.7 SE 9 9 5 5 1020.0 1019.6 0.0
29/04:00am 9.5 5.0 -3.1 41 4.7 SE 11 13 6 7 1019.9 1019.5 0.0
29/03:30am 9.9 5.8 -3.0 40 4.9 SE 9 11 5 6 1019.9 1019.5 0.0
29/03:00am 9.5 5.0 -3.4 40 4.8 SE 11 11 6 6 1019.9 1019.5 0.0
29/02:30am 9.7 5.6 -3.2 40 4.8 SE 9 11 5 6 1020.0 1019.6 0.0
29/02:00am 10.0 5.9 -3.3 39 5.0 SE 9 11 5 6 1020.2 1019.8 0.0
29/01:30am 10.9 6.8 -3.2 37 5.4 SE 9 9 5 5 1020.6 1020.3 0.0
29/01:00am 11.9 8.1 -3.4 34 5.8 ESE 7 9 4 5 1020.8 1020.5 0.0
29/12:30am 14.4 10.0 -2.5 31 6.8 SE 11 13 6 7 1020.7 1020.4 0.0
29/12:00am 16.2 11.6 -1.4 30 7.3 SE 13 19 7 10 1020.5 1020.2 0.0
 
Date/Time
EST
Temp
°C
App
Temp
°C
Dew
Point
Rel
Hum
%
Delta-T
°C
Wind Press
QNH
hPa
Press
MSL
hPa
Rain
since 9 am
mm
Dir
 
Spd
km/h
Gust
km/h
Spd
kts
Gust
kts
28/11:30pm 14.4 9.8 -1.2 34 6.4 SSE 13 15 7 8 1020.6 1020.3 0.0
28/11:00pm 13.5 9.5 -2.0 34 6.2 SSE 9 11 5 6 1020.7 1020.4 0.0
28/10:30pm 13.6 9.9 -2.8 32 6.5 SSE 7 9 4 5 1020.8 1020.5 0.0
28/10:00pm 15.2 11.8 -2.2 30 7.1 SSE 6 9 3 5 1020.9 1020.6 0.0
28/09:30pm 16.3 12.0 -1.3 30 7.4 SSE 11 11 6 6 1020.7 1020.4 0.0
28/09:00pm 17.3 13.0 -1.4 28 7.9 SSE 11 13 6 7 1020.6 1020.3 0.0
28/08:30pm 18.4 14.1 -1.4 26 8.5 SSE 11 15 6 8 1020.4 1020.1 0.0
28/08:00pm 19.4 15.1 -1.7 24 9.0 SSE 11 13 6 7 1020.1 1019.7 0.0
28/07:30pm 21.1 16.5 -1.4 22 9.8 SSE 13 15 7 8 1019.6 1019.2 0.0
28/07:00pm 22.8 18.3 -0.6 21 10.5 SSE 13 17 7 9 1019.2 1018.8 0.0
28/06:30pm 24.5 18.8 -0.6 19 11.5 SE 19 26 10 14 1018.9 1018.5 0.0
28/06:00pm 25.6 19.6 -1.2 17 12.2 SE 20 30 11 16 1018.9 1018.5 0.0
28/05:30pm 26.1 19.8 -0.8 17 12.4 SE 22 30 12 16 1018.9 1018.5 0.0
28/05:00pm 26.1 19.4 -0.8 17 12.4 SE 24 39 13 21 1018.7 1018.3 0.0
28/04:30pm 26.6 20.0 -0.4 17 12.6 ESE 24 33 13 18 1018.6 1018.2 0.0
28/04:00pm 26.8 20.6 -0.3 17 12.7 SE 22 32 12 17 1018.6 1018.2 0.0
28/03:30pm 26.6 20.5 0.4 18 12.4 SE 22 35 12 19 1018.7 1018.3 0.0
28/03:00pm 26.4 20.3 0.2 18 12.3 ESE 22 33 12 18 1019.1 1018.7 0.0
28/02:30pm 26.5 21.0 1.7 20 12.0 ESE 20 37 11 20 1019.3 1018.9 0.0
28/02:00pm 26.3 20.4 1.6 20 11.9 ESE 22 35 12 19 1019.7 1019.3 0.0
28/01:30pm 25.6 19.6 1.0 20 11.7 ESE 22 33 12 18 1020.2 1019.8 0.0
28/01:00pm 25.5 19.7 2.2 22 11.3 SE 22 33 12 18 1020.6 1020.3 0.0
28/12:30pm 25.0 18.5 2.4 23 11.0 SE 26 39 14 21 1021.3 1021.0 0.0
28/12:00pm 24.3 17.7 1.9 23 10.7 SE 26 35 14 19 1021.7 1021.4 0.0
28/11:30am 23.8 18.1 2.6 25 10.2 ESE 22 32 12 17 1022.2 1021.9 0.0
28/11:00am 22.8 16.7 2.8 27 9.6 ESE 24 33 13 18 1022.5 1022.2 0.0
28/10:30am 22.0 16.6 2.2 27 9.4 ESE 20 28 11 15 1022.8 1022.5 0.0
28/10:00am 19.9 14.5 1.4 29 8.4 ESE 19 24 10 13 1022.9 1022.6 0.0
28/09:30am 17.9 12.1 -0.4 29 7.9 SE 20 26 11 14 1023.0 1022.7 0.0
28/09:00am 15.8 10.8 -1.3 31 7.1 SE 15 20 8 11 1022.9 1022.6 0.0
28/08:30am 14.0 9.2 -2.4 32 6.6 SE 13 19 7 10 1022.6 1022.3 0.0
28/08:00am 9.9 6.2 -4.4 36 5.2 SSE 6 9 3 5 1022.4 1022.1 0.0
28/07:30am 7.3 3.5 -5.7 39 4.5 SSE 6 6 3 3 1022.0 1021.7 0.0
28/07:00am 5.8 1.9 -6.1 42 3.9 SSE 6 7 3 4 1021.7 1021.4 0.0
28/06:30am 5.9 2.0 -6.3 41 4.0 SSE 6 7 3 4 1021.2 1020.9 0.0
28/06:00am 6.2 2.3 -6.4 40 4.2 SSE 6 7 3 4 1021.0 1020.7 0.0
28/05:30am 6.2 2.3 -7.0 38 4.3 SSE 6 7 3 4 1020.7 1020.4 0.0
28/05:00am 7.2 3.2 -6.1 38 4.5 SSE 7 9 4 5 1020.6 1020.3 0.0
28/04:30am 6.6 2.4 -7.7 35 4.6 SSE 7 9 4 5 1020.5 1020.2 0.0
28/04:00am 8.0 4.0 -6.1 36 4.8 SSE 7 9 4 5 1020.4 1020.1 0.0
28/03:30am 8.4 4.0 -6.1 35 5.0 SSE 9 11 5 6 1020.6 1020.3 0.0
28/03:00am 8.4 3.6 -6.5 34 5.1 SSE 11 11 6 6 1020.5 1020.2 0.0
28/02:30am 8.7 4.3 -5.9 35 5.1 S 9 11 5 6 1020.8 1020.5 0.0
28/02:00am 8.4 4.4 -6.1 35 5.0 S 7 7 4 4 1020.9 1020.6 0.0
28/01:30am 8.1 3.9 -7.2 33 5.1 SSE 7 9 4 5 1021.1 1020.8 0.0
28/01:00am 8.1 4.1 -8.0 31 5.2 SSE 6 6 3 3 1021.3 1021.0 0.0
28/12:30am 8.6 5.3 -8.4 29 5.6 SSE 2 6 1 3 1021.5 1021.2 0.0
28/12:00am 10.5 7.8 -6.3 30 5.9 CALM 0 0 0 0 1021.6 1021.3 0.0
 
Date/Time
EST
Temp
°C
App
Temp
°C
Dew
Point
Rel
Hum
%
Delta-T
°C
Wind Press
QNH
hPa
Press
MSL
hPa
Rain
since 9 am
mm
Dir
 
Spd
km/h
Gust
km/h
Spd
kts
Gust
kts
27/11:30pm 10.9 7.8 -6.4 29 6.1 SSE 2 2 1 1 1021.6 1021.3 0.0
27/11:00pm 11.2 7.3 -6.2 29 6.2 SSE 6 6 3 3 1021.6 1021.3 0.0
27/10:30pm 12.1 8.3 -5.8 28 6.5 SSE 6 6 3 3 1021.6 1021.3 0.0
27/10:00pm 13.5 9.6 -4.6 28 6.8 SSE 7 7 4 4 1021.5 1021.2 0.0
27/09:30pm 14.2 9.6 -4.5 27 7.2 SSE 11 11 6 6 1021.3 1021.0 0.0
27/09:00pm 15.4 10.8 -4.5 25 7.7 SSE 11 11 6 6 1021.2 1020.9 0.0
27/08:30pm 16.3 11.7 -4.3 24 8.1 SSE 11 13 6 7 1020.9 1020.6 0.0
27/08:00pm 17.1 12.4 -4.8 22 8.6 SSE 11 13 6 7 1020.6 1020.3 0.0
27/07:30pm 19.0 14.3 -5.1 19 9.6 SSE 11 13 6 7 1020.1 1019.7 0.0
27/07:00pm 21.2 16.1 -4.8 17 10.6 SSE 13 20 7 11 1019.7 1019.3 0.0
27/06:30pm 22.7 16.8 -5.2 15 11.5 SSE 17 24 9 13 1019.3 1018.9 0.0
27/06:00pm 23.9 16.6 -6.2 13 12.3 SSE 24 30 13 16 1019.0 1018.6 0.0

Other Formats:

Comma delimited format used in spreadsheet applications
http://www.bom.gov.au/fwo/IDQ60801/IDQ60801.94344.axf

JavaScript Object Notation format (JSON) in row-major order
http://www.bom.gov.au/fwo/IDQ60801/IDQ60801.94344.json